Time;durP1;ratioP1;P1;durP2;ratioP2;P2;SDS_P1;SDS_P2;PMS_P1;PMS_P2;Temp;Humidity;BMP_temperature;BMP_pressure;BME280_temperature;BME280_humidity;BME280_pressure;Samples;Min_cycle;Max_cycle;Signal;HPM_P1;HPM_P2
2022/06/19 04:02:25;;;;;;;10.98;1.92;;;22.40;79.10;;;;;;5346351;23;95558;-78
2022/06/19 04:04:52;;;;;;;14.05;2.20;;;22.70;79.30;;;;;;4917433;28;91664;-78
2022/06/19 04:07:18;;;;;;;17.83;2.40;;;22.90;78.70;;;;;;4912248;28;91785;-78
2022/06/19 04:09:44;;;;;;;15.93;1.92;;;23.20;77.10;;;;;;4918628;28;92097;-78
2022/06/19 04:12:10;;;;;;;17.40;2.15;;;23.20;77.10;;;;;;4916417;28;93754;-74
2022/06/19 04:14:36;;;;;;;13.73;2.30;;;23.20;76.30;;;;;;4906222;28;92176;-74
2022/06/19 04:17:04;;;;;;;12.00;2.63;;;23.50;75.60;;;;;;4912235;28;92044;-75
2022/06/19 04:19:30;;;;;;;11.80;1.70;;;23.70;75.00;;;;;;4911376;28;92456;-74
2022/06/19 04:21:55;;;;;;;12.88;2.35;;;24.00;73.80;;;;;;4916467;28;93241;-75
2022/06/19 04:24:21;;;;;;;10.88;2.35;;;24.20;72.60;;;;;;4917721;28;91651;-75
2022/06/19 04:26:47;;;;;;;10.35;1.90;;;24.30;71.60;;;;;;4915847;28;93031;-75
2022/06/19 04:29:13;;;;;;;7.95;1.95;;;24.60;73.40;;;;;;4906323;28;92550;-74
2022/06/19 04:31:40;;;;;;;9.68;2.05;;;25.10;72.70;;;;;;4917558;28;92284;-73
2022/06/19 04:34:05;;;;;;;11.85;2.15;;;25.50;71.60;;;;;;4918863;28;93084;-75
2022/06/19 04:36:32;;;;;;;17.80;2.90;;;25.60;69.60;;;;;;4915101;28;92034;-75
2022/06/19 04:38:59;;;;;;;10.80;2.17;;;25.70;68.50;;;;;;4900351;28;92287;-74
2022/06/19 04:41:36;;;;;;;15.15;2.83;;;25.90;68.40;;;;;;4912489;28;92188;-74
2022/06/19 04:44:04;;;;;;;16.67;2.65;;;26.10;69.50;;;;;;4902356;28;92113;-73
2022/06/19 04:46:29;;;;;;;11.75;2.75;;;26.80;67.50;;;;;;4909719;28;92516;-75
2022/06/19 04:48:57;;;;;;;11.23;3.33;;;27.20;67.10;;;;;;4901172;28;92165;-73
2022/06/19 04:51:23;;;;;;;12.38;2.83;;;28.00;64.30;;;;;;4900581;28;93360;-75
2022/06/19 04:53:48;;;;;;;16.48;3.20;;;28.10;63.10;;;;;;4900530;28;92844;-75
2022/06/19 04:56:16;;;;;;;11.02;2.45;;;28.50;60.60;;;;;;4908839;28;91936;-73
2022/06/19 04:58:41;;;;;;;15.43;2.40;;;29.10;61.70;;;;;;4903403;28;92484;-74
2022/06/19 05:01:23;;;;;;;10.68;2.78;;;29.60;58.50;;;;;;4906740;28;92330;-72
2022/06/19 05:03:50;;;;;;;9.40;2.05;;;30.10;58.00;;;;;;4898227;28;92135;-73
2022/06/19 05:06:16;;;;;;;16.50;2.92;;;30.20;58.10;;;;;;4898795;28;92038;-73
2022/06/19 05:08:42;;;;;;;10.35;3.30;;;30.50;57.40;;;;;;4897766;28;91597;-74
2022/06/19 05:11:11;;;;;;;12.57;2.80;;;31.30;56.20;;;;;;4896592;28;92816;-73
2022/06/19 05:13:36;;;;;;;16.50;3.17;;;32.00;54.60;;;;;;4894985;28;92125;-73
2022/06/19 05:16:06;;;;;;;13.43;2.97;;;32.50;52.50;;;;;;4896846;28;92965;-73
2022/06/19 05:18:33;;;;;;;12.85;3.55;;;33.00;52.50;;;;;;4898188;28;92181;-73
2022/06/19 05:21:04;;;;;;;11.73;2.95;;;33.30;51.00;;;;;;4896403;28;93608;-75
2022/06/19 05:23:34;;;;;;;13.93;3.08;;;33.60;50.60;;;;;;4898018;28;93363;-73
2022/06/19 05:26:13;;;;;;;12.68;3.70;;;34.00;50.50;;;;;;4896393;28;92054;-74
2022/06/19 05:28:39;;;;;;;11.98;3.28;;;34.50;49.80;;;;;;4889865;28;91942;-75
2022/06/19 05:31:04;;;;;;;11.30;2.70;;;34.40;48.60;;;;;;4890430;28;92298;-78
2022/06/19 05:33:34;;;;;;;16.40;3.80;;;34.50;48.80;;;;;;4896187;28;94023;-78
2022/06/19 05:36:00;;;;;;;11.50;2.97;;;34.50;48.10;;;;;;4897029;28;92836;-75
2022/06/19 05:38:26;;;;;;;13.93;3.67;;;34.60;48.60;;;;;;4896918;28;92033;-74
2022/06/19 05:40:54;;;;;;;15.38;3.22;;;35.40;46.60;;;;;;4893923;28;94124;-73
2022/06/19 05:43:21;;;;;;;12.40;3.00;;;35.70;47.60;;;;;;4898015;28;92131;-71
2022/06/19 05:45:53;;;;;;;12.23;3.75;;;35.50;47.70;;;;;;4893953;28;92610;-74
2022/06/19 05:48:19;;;;;;;16.08;4.32;;;35.80;48.00;;;;;;4887634;28;92160;-77
2022/06/19 05:50:55;;;;;;;15.80;4.60;;;36.70;46.00;;;;;;4896076;28;92881;-72
2022/06/19 05:53:21;;;;;;;12.55;2.72;;;36.60;46.10;;;;;;4894073;28;93049;-75
2022/06/19 05:55:47;;;;;;;12.43;3.28;;;36.60;46.90;;;;;;4897900;28;92227;-75
2022/06/19 05:58:13;;;;;;;11.82;4.05;;;37.20;45.90;;;;;;4891321;28;91290;-73
2022/06/19 06:00:39;;;;;;;14.60;3.55;;;37.80;46.00;;;;;;4899375;28;92534;-75
2022/06/19 06:03:04;;;;;;;10.65;3.63;;;38.30;45.50;;;;;;4896872;28;92096;-75
2022/06/19 06:05:30;;;;;;;11.65;3.25;;;39.00;43.40;;;;;;4894651;28;93343;-72
2022/06/19 06:07:56;;;;;;;15.05;3.45;;;39.50;42.80;;;;;;4893119;28;92256;-75
2022/06/19 06:10:21;;;;;;;7.97;3.08;;;39.90;41.60;;;;;;4899968;28;92539;-74
2022/06/19 06:12:47;;;;;;;11.20;4.13;;;39.50;43.30;;;;;;4900562;28;92149;-75
2022/06/19 06:15:13;;;;;;;14.95;4.90;;;39.80;42.00;;;;;;4901777;28;92229;-76
2022/06/19 06:17:38;;;;;;;16.00;4.00;;;40.40;41.60;;;;;;4892121;28;92218;-75
2022/06/19 06:20:05;;;;;;;13.55;4.05;;;40.60;41.10;;;;;;4895818;28;92217;-72
2022/06/19 06:22:30;;;;;;;11.50;3.88;;;40.40;41.30;;;;;;4894710;28;91564;-75
2022/06/19 06:24:56;;;;;;;14.75;4.03;;;40.70;41.30;;;;;;4896961;28;92081;-73
2022/06/19 06:27:23;;;;;;;16.15;3.50;;;40.70;42.00;;;;;;4897061;28;91974;-75
2022/06/19 06:29:49;;;;;;;15.63;4.97;;;41.20;41.00;;;;;;4890183;28;93427;-74
2022/06/19 06:32:15;;;;;;;11.55;3.80;;;40.90;41.50;;;;;;4893624;28;92884;-78
2022/06/19 06:34:40;;;;;;;15.90;4.70;;;41.00;40.20;;;;;;4894826;28;92355;-75
2022/06/19 06:37:06;;;;;;;17.95;4.35;;;40.80;41.60;;;;;;4891071;28;92176;-71
2022/06/19 06:39:32;;;;;;;13.50;5.03;;;41.00;41.60;;;;;;4893856;28;94727;-71
2022/06/19 06:41:58;;;;;;;15.32;4.68;;;41.40;40.70;;;;;;4893588;28;93356;-74
2022/06/19 06:44:23;;;;;;;14.85;3.83;;;41.60;41.00;;;;;;4893883;28;92113;-72
2022/06/19 06:46:49;;;;;;;14.40;5.20;;;41.40;41.00;;;;;;4898617;28;93178;-71
2022/06/19 06:49:15;;;;;;;11.32;4.40;;;42.30;39.90;;;;;;4894123;28;92681;-72
2022/06/19 06:51:41;;;;;;;12.85;5.25;;;42.50;39.20;;;;;;4893426;28;92440;-72
2022/06/19 06:54:07;;;;;;;14.32;4.65;;;42.80;38.60;;;;;;4893160;28;93366;-74
2022/06/19 06:56:34;;;;;;;15.40;5.15;;;42.70;39.60;;;;;;4893749;28;92388;-71
2022/06/19 06:59:00;;;;;;;22.15;4.97;;;42.40;39.90;;;;;;4893528;28;92144;-70
2022/06/19 07:01:26;;;;;;;14.98;4.45;;;43.20;39.30;;;;;;4892520;28;94319;-71
2022/06/19 07:03:55;;;;;;;17.50;4.57;;;43.80;39.10;;;;;;4893320;28;92214;-72
2022/06/19 07:06:23;;;;;;;10.75;5.10;;;44.70;36.90;;;;;;4893728;28;92015;-72
2022/06/19 07:08:48;;;;;;;15.65;5.90;;;44.80;36.70;;;;;;4893894;28;92507;-72
2022/06/19 07:11:21;;;;;;;12.85;5.32;;;44.00;36.90;;;;;;4893693;28;93010;-71
2022/06/19 07:13:47;;;;;;;13.70;4.63;;;44.20;36.70;;;;;;4893861;28;93069;-72
2022/06/19 07:16:13;;;;;;;15.77;4.75;;;43.80;36.80;;;;;;4893868;28;92074;-70
2022/06/19 07:18:39;;;;;;;17.17;5.68;;;44.60;36.40;;;;;;4892813;28;93261;-71
2022/06/19 07:21:05;;;;;;;15.05;4.57;;;45.80;35.30;;;;;;4893581;28;92503;-73
2022/06/19 07:23:30;;;;;;;17.80;5.10;;;46.50;34.40;;;;;;4894153;28;92473;-71
2022/06/19 07:25:56;;;;;;;14.77;4.78;;;46.40;34.40;;;;;;4894188;28;92515;-71
2022/06/19 07:28:22;;;;;;;16.05;4.72;;;46.10;35.00;;;;;;4892045;28;92242;-73
2022/06/19 07:30:48;;;;;;;13.23;5.07;;;46.30;34.70;;;;;;4893065;28;92580;-72
2022/06/19 07:33:13;;;;;;;14.70;4.93;;;47.20;33.10;;;;;;4896924;28;92058;-71
2022/06/19 07:35:39;;;;;;;16.35;5.40;;;47.20;33.30;;;;;;4897452;28;91760;-72
2022/06/19 07:38:05;;;;;;;12.25;5.18;;;47.80;31.50;;;;;;4896413;28;93106;-71
2022/06/19 07:40:31;;;;;;;19.67;5.88;;;47.90;31.30;;;;;;4895864;28;93054;-71
2022/06/19 07:42:57;;;;;;;11.15;4.95;;;48.60;30.60;;;;;;4896081;28;93301;-71
2022/06/19 07:45:23;;;;;;;14.63;6.15;;;49.00;30.70;;;;;;4896875;28;92020;-71
2022/06/19 07:50:33;;;;;;;17.50;5.50;;;49.00;30.80;;;;;;4895554;28;92666;-71
2022/06/19 07:52:58;;;;;;;11.02;5.60;;;49.00;31.40;;;;;;4897317;28;92070;-72
2022/06/19 07:55:27;;;;;;;15.18;5.65;;;49.50;31.60;;;;;;4896635;28;92105;-72
2022/06/19 07:57:53;;;;;;;21.05;6.70;;;49.90;31.20;;;;;;4891577;28;94415;-71
2022/06/19 08:00:22;;;;;;;14.60;6.15;;;50.20;31.10;;;;;;4896288;28;91402;-71
2022/06/19 08:02:51;;;;;;;12.98;5.70;;;50.00;30.80;;;;;;4892684;28;92460;-71
2022/06/19 08:05:20;;;;;;;15.95;6.93;;;50.50;31.20;;;;;;4896583;28;92214;-71
2022/06/19 08:07:46;;;;;;;14.40;6.10;;;50.30;31.10;;;;;;4897296;28;93372;-72
2022/06/19 08:10:20;;;;;;;14.30;7.07;;;50.80;30.30;;;;;;4892849;28;92922;-72
2022/06/19 08:12:46;;;;;;;14.90;7.18;;;51.20;30.00;;;;;;4895116;28;92414;-73
2022/06/19 08:15:12;;;;;;;14.13;6.85;;;51.30;31.00;;;;;;4896749;28;92037;-72
2022/06/19 08:17:38;;;;;;;16.95;7.22;;;51.70;31.10;;;;;;4896211;28;92280;-72
2022/06/19 08:20:05;;;;;;;13.48;7.90;;;52.50;30.30;;;;;;4896978;28;92233;-71
2022/06/19 08:22:30;;;;;;;14.68;7.05;;;52.50;29.80;;;;;;4897763;28;92534;-71
2022/06/19 08:24:56;;;;;;;18.40;9.13;;;52.50;30.00;;;;;;4898637;28;91286;-72
2022/06/19 08:27:22;;;;;;;15.15;8.48;;;52.40;30.70;;;;;;4895157;28;92427;-71
2022/06/19 08:29:47;;;;;;;15.25;8.75;;;51.20;31.00;;;;;;4897654;28;92169;-72
2022/06/19 08:32:13;;;;;;;16.05;7.95;;;51.90;30.00;;;;;;4898763;28;92923;-71
2022/06/19 08:34:39;;;;;;;16.08;8.10;;;52.40;29.10;;;;;;4895626;28;92098;-73
2022/06/19 08:37:07;;;;;;;14.15;7.97;;;52.10;29.70;;;;;;4896943;28;92117;-72
2022/06/19 08:39:33;;;;;;;16.33;8.95;;;53.60;29.70;;;;;;4896214;28;92571;-71
2022/06/19 08:42:47;;;;;;;16.17;8.73;;;52.00;29.40;;;;;;4896360;28;92657;-73
2022/06/19 08:45:26;;;;;;;18.27;7.43;;;49.30;32.10;;;;;;4818461;29;92117;-71
2022/06/19 08:48:14;;;;;;;19.48;8.23;;;49.80;29.70;;;;;;4886164;28;94532;-72
2022/06/19 08:50:56;;;;;;;24.33;8.18;;;51.40;28.60;;;;;;4895574;28;91381;-73
2022/06/19 08:53:29;;;;;;;17.88;7.55;;;52.70;28.40;;;;;;4897029;28;92085;-72
2022/06/19 08:56:07;;;;;;;17.42;9.45;;;52.50;27.80;;;;;;4896224;28;92073;-72
2022/06/19 08:58:56;;;;;;;18.75;12.35;;;52.90;28.20;;;;;;4895718;28;94330;-75
2022/06/19 09:01:42;;;;;;;17.08;7.72;;;54.80;27.10;;;;;;4895097;28;92152;-72
2022/06/19 09:07:07;;;;;;;14.45;9.80;;;55.20;27.80;;;;;;4896147;28;92611;-72
2022/06/19 09:09:41;;;;;;;19.73;10.63;;;55.80;27.00;;;;;;4895606;28;93112;-72
2022/06/19 09:12:10;;;;;;;17.48;10.15;;;55.70;28.10;;;;;;4895415;28;92594;-72
2022/06/19 09:14:44;;;;;;;16.05;9.10;;;55.10;28.60;;;;;;4895617;28;92390;-73
2022/06/19 09:17:17;;;;;;;14.95;9.02;;;54.70;29.40;;;;;;4896161;28;91641;-73
2022/06/19 09:20:01;;;;;;;13.68;10.13;;;53.80;30.70;;;;;;4895446;28;92338;-71
2022/06/19 09:22:43;;;;;;;15.07;8.13;;;54.80;30.10;;;;;;4895263;28;92962;-72
2022/06/19 09:25:29;;;;;;;18.15;10.25;;;54.30;30.20;;;;;;4886552;28;93316;-72
2022/06/19 09:28:16;;;;;;;20.77;11.45;;;53.60;30.20;;;;;;4895916;28;92116;-73
2022/06/19 09:31:09;;;;;;;20.15;10.00;;;53.90;30.00;;;;;;4895224;28;92533;-74
2022/06/19 09:33:52;;;;;;;20.85;11.23;;;53.90;29.90;;;;;;4884390;28;92999;-73
2022/06/19 09:36:43;;;;;;;20.02;9.38;;;53.40;30.40;;;;;;4895706;28;91920;-72
2022/06/19 09:39:17;;;;;;;14.68;8.95;;;53.30;30.70;;;;;;4894030;28;92053;-72
2022/06/19 09:42:06;;;;;;;19.98;10.93;;;53.70;28.90;;;;;;4895762;28;93146;-73
2022/06/19 09:44:55;;;;;;;18.73;10.43;;;54.40;29.20;;;;;;4886579;28;94339;-71
2022/06/19 09:47:56;;;;;;;22.35;9.50;;;54.30;29.50;;;;;;4894452;28;92124;-72
2022/06/19 09:50:30;;;;;;;16.25;10.38;;;53.50;29.30;;;;;;4876605;28;92191;-73
2022/06/19 09:53:02;;;;;;;17.38;9.80;;;53.30;29.50;;;;;;4893974;28;92933;-72
2022/06/19 09:55:42;;;;;;;16.48;9.05;;;52.30;30.00;;;;;;4894836;28;93952;-72
2022/06/19 09:58:16;;;;;;;15.90;9.68;;;52.80;29.30;;;;;;4895518;28;92470;-74
2022/06/19 10:00:44;;;;;;;16.35;10.07;;;52.80;29.90;;;;;;4886101;28;91948;-72
2022/06/19 10:03:15;;;;;;;15.20;8.23;;;52.90;28.40;;;;;;4893334;28;94496;-73
2022/06/19 10:05:49;;;;;;;16.02;9.27;;;53.30;27.90;;;;;;4894588;28;92378;-72
2022/06/19 10:08:24;;;;;;;16.95;8.10;;;52.40;28.10;;;;;;4893367;28;92194;-72
2022/06/19 10:11:16;;;;;;;18.33;8.15;;;50.60;30.60;;;;;;4895675;28;91267;-72
2022/06/19 10:13:52;;;;;;;14.00;6.72;;;48.90;30.90;;;;;;4893566;28;92175;-72
2022/06/19 10:16:29;;;;;;;13.65;8.05;;;46.30;32.60;;;;;;4893076;28;93141;-72
2022/06/19 10:18:58;;;;;;;15.38;7.40;;;44.30;35.30;;;;;;4895254;28;92987;-71
2022/06/19 10:25:01;;;;;;;16.77;4.95;;;42.60;37.70;;;;;;4893245;28;92396;-71
2022/06/19 10:27:36;;;;;;;17.83;5.35;;;40.90;38.90;;;;;;4893773;28;92494;-72
2022/06/19 10:30:11;;;;;;;17.88;5.95;;;39.70;40.10;;;;;;4895511;28;91930;-71
2022/06/19 10:33:01;;;;;;;16.02;5.13;;;39.50;40.00;;;;;;4894337;28;92107;-71
2022/06/19 10:36:02;;;;;;;10.68;4.10;;;39.00;41.40;;;;;;4894712;28;93164;-71
2022/06/19 10:38:58;;;;;;;17.45;4.20;;;38.60;39.80;;;;;;4877453;28;92315;-73
2022/06/19 10:44:50;;;;;;;13.57;3.72;;;38.10;45.10;;;;;;4894858;28;92387;-72
2022/06/19 10:47:46;;;;;;;14.88;4.30;;;37.10;48.90;;;;;;4891628;28;93762;-71
2022/06/19 10:50:12;;;;;;;16.02;3.53;;;36.60;47.90;;;;;;4889428;28;93252;-72
2022/06/19 10:52:53;;;;;;;16.58;3.10;;;36.40;48.30;;;;;;4896586;28;92055;-73
2022/06/19 10:55:33;;;;;;;12.85;4.10;;;36.20;49.20;;;;;;4895403;28;92029;-72
2022/06/19 10:58:10;;;;;;;13.85;3.25;;;36.30;50.80;;;;;;4895372;28;93269;-72
2022/06/19 11:00:36;;;;;;;17.40;3.55;;;35.90;51.70;;;;;;4894740;28;92443;-72
2022/06/19 11:06:13;;;;;;;14.40;3.72;;;35.60;51.90;;;;;;4892254;28;91367;-71
2022/06/19 11:08:43;;;;;;;13.07;3.72;;;35.40;49.10;;;;;;4897672;28;93753;-71
2022/06/19 11:11:14;;;;;;;15.00;3.45;;;35.10;50.20;;;;;;4897258;28;91839;-71
2022/06/19 11:14:04;;;;;;;19.27;3.90;;;34.90;50.30;;;;;;4897585;28;93001;-71
2022/06/19 11:16:33;;;;;;;15.02;3.97;;;34.70;49.80;;;;;;4897769;28;92479;-70
2022/06/19 11:18:59;;;;;;;18.98;4.05;;;34.70;48.70;;;;;;4894390;28;95081;-70
2022/06/19 11:21:33;;;;;;;17.92;3.38;;;35.00;50.30;;;;;;4897053;28;92147;-69
2022/06/19 11:24:01;;;;;;;21.13;4.00;;;34.80;52.00;;;;;;4903547;28;92108;-70
2022/06/19 11:26:36;;;;;;;18.52;3.85;;;34.70;53.00;;;;;;4904324;28;92038;-71
2022/06/19 11:29:12;;;;;;;17.30;5.20;;;35.10;52.00;;;;;;4899990;28;93163;-70
2022/06/19 11:31:59;;;;;;;20.23;2.95;;;35.30;50.30;;;;;;4896063;28;91259;-72
2022/06/19 11:34:44;;;;;;;16.00;3.45;;;34.90;49.00;;;;;;4894057;28;92474;-70
2022/06/19 11:37:24;;;;;;;14.80;3.85;;;35.10;51.20;;;;;;4900857;28;92649;-70
2022/06/19 11:39:59;;;;;;;12.68;4.15;;;35.40;50.30;;;;;;4891487;28;93162;-70
2022/06/19 11:42:33;;;;;;;14.20;3.80;;;35.20;47.10;;;;;;4899311;28;94235;-74
2022/06/19 11:45:14;;;;;;;14.57;3.15;;;35.40;50.10;;;;;;4898080;28;92333;-72
2022/06/19 11:47:57;;;;;;;20.85;3.47;;;35.00;49.40;;;;;;4900859;28;92367;-73
2022/06/19 11:50:37;;;;;;;13.65;3.95;;;34.40;50.50;;;;;;4900474;28;92336;-72
2022/06/19 11:53:14;;;;;;;12.20;3.28;;;34.20;51.80;;;;;;4891973;28;94694;-72
2022/06/19 11:56:08;;;;;;;13.63;3.25;;;34.10;48.10;;;;;;4896357;28;92335;-72
2022/06/19 11:58:40;;;;;;;18.85;3.08;;;34.00;47.40;;;;;;4863589;28;91414;-71
2022/06/19 12:01:06;;;;;;;11.15;3.08;;;33.90;48.50;;;;;;4889938;28;92869;-72
2022/06/19 12:03:38;;;;;;;14.75;3.75;;;33.70;50.10;;;;;;4894895;28;92559;-72
2022/06/19 12:06:07;;;;;;;19.42;3.28;;;33.50;49.80;;;;;;4890394;28;92969;-71
2022/06/19 12:08:37;;;;;;;13.27;3.22;;;33.60;50.80;;;;;;4890589;28;92092;-71
2022/06/19 12:11:06;;;;;;;15.65;3.78;;;33.70;49.20;;;;;;4892672;28;92322;-72
2022/06/19 12:13:41;;;;;;;13.05;4.03;;;33.90;48.70;;;;;;4893891;28;92421;-71
2022/06/19 12:16:19;;;;;;;11.70;4.15;;;33.80;49.20;;;;;;4899399;28;92508;-71
2022/06/19 12:18:45;;;;;;;15.25;4.65;;;33.90;48.10;;;;;;4891274;28;92541;-71
2022/06/19 12:21:20;;;;;;;12.55;3.63;;;34.10;46.40;;;;;;4886455;28;91730;-71
2022/06/19 12:24:12;;;;;;;20.65;4.32;;;34.10;48.00;;;;;;4892811;28;92346;-73
2022/06/19 12:26:44;;;;;;;13.57;4.50;;;34.20;50.50;;;;;;4894899;28;92236;-71
2022/06/19 12:29:36;;;;;;;11.07;3.70;;;34.00;49.40;;;;;;4886016;28;92218;-71
2022/06/19 12:32:21;;;;;;;15.48;3.85;;;33.80;50.30;;;;;;4882639;28;93523;-71
2022/06/19 12:34:48;;;;;;;16.42;4.43;;;33.70;49.50;;;;;;4885856;28;93725;-71
2022/06/19 12:37:23;;;;;;;9.88;3.58;;;33.60;48.10;;;;;;4896225;28;92166;-72
2022/06/19 12:39:49;;;;;;;25.17;4.07;;;33.70;47.80;;;;;;4888003;28;92034;-72
2022/06/19 12:42:34;;;;;;;15.32;4.43;;;33.80;50.60;;;;;;4892946;28;92211;-71
2022/06/19 12:45:06;;;;;;;14.48;4.10;;;33.70;50.10;;;;;;4894388;28;94529;-73
2022/06/19 12:47:40;;;;;;;14.18;3.97;;;33.60;51.30;;;;;;4895261;28;91980;-71
2022/06/19 12:50:21;;;;;;;17.38;4.70;;;33.40;49.60;;;;;;4895193;28;91177;-71
2022/06/19 12:53:01;;;;;;;12.93;4.38;;;33.20;51.00;;;;;;4892094;28;92743;-71
2022/06/19 12:55:46;;;;;;;14.77;4.38;;;33.50;49.90;;;;;;4888587;28;92247;-70
2022/06/19 12:58:23;;;;;;;13.95;4.63;;;33.40;50.00;;;;;;4888058;28;93475;-70
2022/06/19 13:01:24;;;;;;;15.32;4.90;;;33.40;49.10;;;;;;4888173;28;93170;-72
2022/06/19 13:04:21;;;;;;;15.85;4.78;;;33.40;51.20;;;;;;4888929;28;92181;-71
2022/06/19 13:07:20;;;;;;;13.27;4.07;;;33.60;50.00;;;;;;4890876;28;92144;-70
2022/06/19 13:10:17;;;;;;;11.70;5.00;;;33.80;49.30;;;;;;4895453;28;93598;-70
2022/06/19 13:12:52;;;;;;;10.88;3.58;;;33.90;49.90;;;;;;4888161;28;92099;-70
2022/06/19 13:15:40;;;;;;;11.85;3.80;;;33.90;48.50;;;;;;4893475;28;93728;-71
2022/06/19 13:18:28;;;;;;;11.27;4.35;;;34.10;49.10;;;;;;4895367;28;91986;-70
2022/06/19 13:21:08;;;;;;;12.05;3.45;;;33.90;47.60;;;;;;4896408;28;92038;-71
2022/06/19 13:23:45;;;;;;;16.20;4.35;;;33.70;49.80;;;;;;4893938;28;92169;-71
2022/06/19 13:29:48;;;;;;;23.20;3.80;;;33.60;46.10;;;;;;4893877;28;92978;-71
2022/06/19 13:32:28;;;;;;;14.68;3.53;;;33.30;46.80;;;;;;4895939;28;91953;-73
2022/06/19 13:35:12;;;;;;;14.25;4.00;;;33.50;47.20;;;;;;4895237;28;92081;-71
2022/06/19 13:38:15;;;;;;;15.10;3.60;;;33.70;46.90;;;;;;4895381;28;92845;-72
2022/06/19 13:40:59;;;;;;;15.07;3.60;;;33.80;47.80;;;;;;4892653;28;92917;-71
2022/06/19 13:43:39;;;;;;;10.85;3.58;;;33.80;47.00;;;;;;4895969;28;91973;-72
2022/06/19 13:46:18;;;;;;;13.73;3.03;;;33.80;45.90;;;;;;4896199;28;91381;-74
2022/06/19 13:48:57;;;;;;;15.82;3.38;;;33.80;47.10;;;;;;4894881;28;92920;-73
2022/06/19 13:51:40;;;;;;;12.77;4.00;;;33.50;45.80;;;;;;4890635;28;92449;-72
2022/06/19 13:54:14;;;;;;;18.08;4.18;;;33.50;46.80;;;;;;4889196;28;93257;-71
2022/06/19 13:57:17;;;;;;;14.65;4.45;;;33.70;47.80;;;;;;4892947;28;93822;-71
2022/06/19 13:59:54;;;;;;;13.63;3.45;;;33.90;47.20;;;;;;4894351;28;94587;-71
2022/06/19 14:02:41;;;;;;;12.40;3.30;;;34.00;46.20;;;;;;4894489;28;92176;-72
2022/06/19 14:05:27;;;;;;;17.40;3.35;;;33.80;45.40;;;;;;4891173;28;91979;-71
2022/06/19 14:08:04;;;;;;;11.63;3.17;;;33.40;44.10;;;;;;4895161;28;92263;-70
2022/06/19 14:10:57;;;;;;;16.90;3.70;;;33.30;47.30;;;;;;4893641;28;93408;-71
2022/06/19 14:13:44;;;;;;;13.52;3.25;;;33.50;49.10;;;;;;4895844;28;92023;-71
2022/06/19 14:16:37;;;;;;;13.18;3.50;;;33.60;46.90;;;;;;4895406;28;92455;-71
2022/06/19 14:19:26;;;;;;;11.77;3.45;;;33.60;46.20;;;;;;4896279;28;92052;-71
2022/06/19 14:22:04;;;;;;;9.98;2.55;;;33.80;45.50;;;;;;4896201;28;93024;-71
2022/06/19 14:25:03;;;;;;;12.27;3.75;;;33.90;44.60;;;;;;4887515;28;92714;-71
2022/06/19 14:27:43;;;;;;;13.32;3.08;;;33.60;45.10;;;;;;4890653;28;92175;-71
2022/06/19 14:30:33;;;;;;;13.60;3.08;;;33.70;44.40;;;;;;4895635;28;92232;-72
2022/06/19 14:33:02;;;;;;;12.25;2.63;;;34.00;43.80;;;;;;4895941;28;92478;-73
2022/06/19 14:35:34;;;;;;;14.32;2.75;;;33.90;45.70;;;;;;4895318;28;92047;-73
2022/06/19 14:38:05;;;;;;;11.40;2.83;;;34.10;43.10;;;;;;4895487;28;91926;-71
2022/06/19 14:40:31;;;;;;;20.90;3.05;;;34.10;43.60;;;;;;4895190;28;91395;-71
2022/06/19 14:43:10;;;;;;;10.80;3.08;;;34.10;42.90;;;;;;4894010;28;93179;-71
2022/06/19 14:46:09;;;;;;;10.70;2.63;;;34.10;43.60;;;;;;4895107;28;91855;-71
2022/06/19 14:48:46;;;;;;;14.52;3.03;;;34.10;43.10;;;;;;4888515;28;93446;-72
2022/06/19 14:51:32;;;;;;;15.10;2.95;;;34.20;42.80;;;;;;4895821;28;91979;-71
2022/06/19 14:54:32;;;;;;;8.52;2.35;;;34.00;43.30;;;;;;4894495;28;92448;-71
2022/06/19 14:57:11;;;;;;;13.82;2.55;;;33.90;42.00;;;;;;4895080;28;92447;-71
2022/06/19 15:00:25;;;;;;;12.77;2.45;;;34.00;40.80;;;;;;4895232;28;92084;-71
2022/06/19 15:03:06;;;;;;;15.27;3.35;;;34.00;41.10;;;;;;4869054;28;92134;-73
2022/06/19 15:05:37;;;;;;;13.45;3.00;;;34.00;40.50;;;;;;4885822;28;93929;-71
2022/06/19 15:08:28;;;;;;;11.05;3.13;;;33.80;41.50;;;;;;4899760;28;91853;-71
2022/06/19 15:11:03;;;;;;;13.75;2.65;;;34.00;41.40;;;;;;4899718;28;92023;-72
2022/06/19 15:13:29;;;;;;;13.68;4.32;;;34.00;40.50;;;;;;4900975;28;91958;-71
2022/06/19 15:16:16;;;;;;;20.83;5.45;;;34.00;41.00;;;;;;4898292;28;93694;-72
2022/06/19 15:19:16;;;;;;;17.65;6.47;;;34.00;41.20;;;;;;4894248;28;92391;-73
2022/06/19 15:21:47;;;;;;;16.77;3.97;;;33.90;40.60;;;;;;4857163;28;92211;-71
2022/06/19 15:24:29;;;;;;;21.05;7.43;;;33.80;42.40;;;;;;4890369;28;92377;-71
2022/06/19 15:27:24;;;;;;;22.63;8.02;;;33.90;42.40;;;;;;4894307;28;92123;-71
2022/06/19 15:29:55;;;;;;;14.98;4.88;;;34.00;41.50;;;;;;4886030;28;92048;-71
2022/06/19 15:32:39;;;;;;;15.23;3.38;;;34.10;42.80;;;;;;4903934;28;92043;-71
2022/06/19 15:35:49;;;;;;;11.55;4.03;;;33.90;42.30;;;;;;4891048;28;91394;-71
2022/06/19 15:38:25;;;;;;;11.27;3.25;;;33.80;42.40;;;;;;4814549;29;94447;-72
2022/06/19 15:40:51;;;;;;;15.02;3.85;;;33.60;41.60;;;;;;4888513;28;92395;-71
2022/06/19 15:43:17;;;;;;;11.65;3.13;;;33.70;42.20;;;;;;4894602;28;94758;-72
2022/06/19 15:45:50;;;;;;;15.27;3.58;;;33.50;41.80;;;;;;4901200;28;92272;-72
2022/06/19 15:48:44;;;;;;;15.13;2.92;;;33.50;42.10;;;;;;4898367;28;92011;-71
2022/06/19 15:51:31;;;;;;;14.40;3.72;;;33.60;42.60;;;;;;4894334;28;92342;-71
2022/06/19 15:54:15;;;;;;;16.42;3.58;;;33.70;41.30;;;;;;4894910;28;91987;-70
2022/06/19 15:56:44;;;;;;;11.65;3.85;;;33.70;42.80;;;;;;4898102;28;91942;-72
2022/06/19 15:59:21;;;;;;;12.05;3.78;;;33.60;40.90;;;;;;4896415;28;93185;-71
2022/06/19 16:01:54;;;;;;;16.98;3.13;;;33.50;42.00;;;;;;4896243;28;91360;-71
2022/06/19 16:04:24;;;;;;;18.25;3.55;;;33.50;41.30;;;;;;4897780;28;92670;-72
2022/06/19 16:06:59;;;;;;;12.82;2.78;;;33.50;40.80;;;;;;4899071;28;92122;-71
2022/06/19 16:09:26;;;;;;;17.38;3.20;;;33.60;41.20;;;;;;4899503;28;94461;-71
2022/06/19 16:12:07;;;;;;;20.13;4.13;;;33.70;42.70;;;;;;4901711;28;92922;-71
2022/06/19 16:14:36;;;;;;;15.27;3.42;;;33.60;42.90;;;;;;4899072;28;91964;-71
2022/06/19 16:17:17;;;;;;;12.75;3.90;;;33.70;42.70;;;;;;4900692;28;92251;-71
2022/06/19 16:19:44;;;;;;;15.30;3.53;;;33.70;43.20;;;;;;4898437;28;92382;-71
2022/06/19 16:22:24;;;;;;;11.23;2.92;;;33.80;43.30;;;;;;4894020;28;92425;-71
2022/06/19 16:24:51;;;;;;;15.65;3.33;;;33.80;41.60;;;;;;4903303;28;92731;-71
2022/06/19 16:27:21;;;;;;;11.18;3.65;;;33.60;42.30;;;;;;4903676;28;91235;-71
2022/06/19 16:29:49;;;;;;;11.48;3.60;;;33.60;41.90;;;;;;4895163;28;92170;-71
2022/06/19 16:32:50;;;;;;;12.82;3.75;;;33.60;42.60;;;;;;4901518;28;92438;-71
2022/06/19 16:44:08;;;;;;;17.50;3.67;;;32.90;50.30;;;;;;4894721;28;93310;-58
2022/06/19 16:46:47;;;;;;;14.68;3.38;;;32.70;46.10;;;;;;4894226;28;92670;-58
2022/06/19 16:49:25;;;;;;;12.35;3.60;;;32.90;48.90;;;;;;4899864;28;92102;-61
2022/06/19 16:51:56;;;;;;;11.93;3.35;;;32.80;44.10;;;;;;4896305;28;93576;-61
2022/06/19 16:54:39;;;;;;;15.43;3.75;;;33.00;46.50;;;;;;4895249;28;93154;-60
2022/06/19 16:57:17;;;;;;;13.68;3.75;;;32.90;43.50;;;;;;4895306;28;92460;-60
2022/06/19 16:59:44;;;;;;;13.65;3.65;;;32.90;44.80;;;;;;4896431;28;92006;-61
2022/06/19 17:02:18;;;;;;;16.67;3.20;;;33.00;42.60;;;;;;4893132;28;95600;-58
2022/06/19 17:04:44;;;;;;;10.18;3.90;;;33.10;47.80;;;;;;4896098;28;94858;-61
2022/06/19 17:07:11;;;;;;;20.55;3.47;;;32.90;48.20;;;;;;4898245;28;92509;-59
2022/06/19 17:09:41;;;;;;;12.18;4.38;;;33.00;42.70;;;;;;4915242;28;91993;-59
2022/06/19 17:12:19;;;;;;;14.32;3.35;;;33.00;42.70;;;;;;4908236;28;93498;-58
2022/06/19 17:14:49;;;;;;;13.50;3.80;;;32.90;43.50;;;;;;4893160;28;92329;-60
2022/06/19 17:17:33;;;;;;;19.20;3.63;;;32.90;48.40;;;;;;4900530;28;91906;-60
2022/06/19 17:20:14;;;;;;;18.15;3.72;;;33.00;40.90;;;;;;4882901;28;91463;-58
2022/06/19 17:22:58;;;;;;;8.88;3.08;;;33.00;42.30;;;;;;4892085;28;93214;-60
2022/06/19 17:25:30;;;;;;;9.80;3.33;;;33.00;41.40;;;;;;4897321;28;92024;-57
2022/06/19 17:28:04;;;;;;;11.82;3.10;;;32.90;45.00;;;;;;4896926;28;92336;-60
2022/06/19 17:30:35;;;;;;;12.68;3.00;;;32.90;42.10;;;;;;4896900;28;93345;-60
2022/06/19 17:33:19;;;;;;;12.07;4.22;;;32.70;43.20;;;;;;4895258;28;93252;-58
2022/06/19 17:35:47;;;;;;;13.55;3.85;;;32.60;43.40;;;;;;4907214;28;92330;-59
2022/06/19 17:38:30;;;;;;;15.05;3.55;;;32.60;43.00;;;;;;4896767;28;92570;-60
2022/06/19 17:40:59;;;;;;;13.00;2.75;;;32.60;42.60;;;;;;4893353;28;92232;-60
2022/06/19 17:43:30;;;;;;;9.73;2.72;;;32.50;42.50;;;;;;4894522;28;92169;-60